sensor_id;sensor_type;location;lat;lon;timestamp;temperature;humidity
59857;DHT22;45733;52.668;6.860;2023-07-02T00:01:15;16.60;99.90
59857;DHT22;45733;52.668;6.860;2023-07-02T00:03:40;16.50;99.90
59857;DHT22;45733;52.668;6.860;2023-07-02T00:06:06;16.50;99.90
59857;DHT22;45733;52.668;6.860;2023-07-02T00:08:32;16.60;99.90
59857;DHT22;45733;52.668;6.860;2023-07-02T00:10:57;16.50;99.90
59857;DHT22;45733;52.668;6.860;2023-07-02T00:13:23;16.50;99.90
59857;DHT22;45733;52.668;6.860;2023-07-02T00:15:49;16.40;99.90
59857;DHT22;45733;52.668;6.860;2023-07-02T00:18:14;16.30;99.90
59857;DHT22;45733;52.668;6.860;2023-07-02T00:20:43;16.30;99.90
59857;DHT22;45733;52.668;6.860;2023-07-02T00:23:09;16.30;99.90
59857;DHT22;45733;52.668;6.860;2023-07-02T00:25:36;16.30;99.90
59857;DHT22;45733;52.668;6.860;2023-07-02T00:28:05;16.20;99.90
59857;DHT22;45733;52.668;6.860;2023-07-02T00:30:30;16.20;99.90
59857;DHT22;45733;52.668;6.860;2023-07-02T00:32:56;16.10;99.90
59857;DHT22;45733;52.668;6.860;2023-07-02T00:35:22;16.10;99.90
59857;DHT22;45733;52.668;6.860;2023-07-02T00:37:49;16.00;99.90
59857;DHT22;45733;52.668;6.860;2023-07-02T00:40:15;16.10;99.90
59857;DHT22;45733;52.668;6.860;2023-07-02T00:42:40;16.00;99.90
59857;DHT22;45733;52.668;6.860;2023-07-02T00:45:06;16.00;99.90
59857;DHT22;45733;52.668;6.860;2023-07-02T00:47:34;16.00;99.90
59857;DHT22;45733;52.668;6.860;2023-07-02T00:50:01;16.00;99.90
59857;DHT22;45733;52.668;6.860;2023-07-02T00:52:27;16.10;99.90
59857;DHT22;45733;52.668;6.860;2023-07-02T00:54:53;16.10;99.90
59857;DHT22;45733;52.668;6.860;2023-07-02T00:57:19;16.20;99.90
59857;DHT22;45733;52.668;6.860;2023-07-02T00:59:44;16.20;99.90
59857;DHT22;45733;52.668;6.860;2023-07-02T01:02:10;16.20;99.90
59857;DHT22;45733;52.668;6.860;2023-07-02T01:04:38;16.20;99.90
59857;DHT22;45733;52.668;6.860;2023-07-02T01:07:04;16.20;99.90
59857;DHT22;45733;52.668;6.860;2023-07-02T01:09:35;16.30;99.90
59857;DHT22;45733;52.668;6.860;2023-07-02T01:12:04;16.20;99.90
59857;DHT22;45733;52.668;6.860;2023-07-02T01:14:41;16.20;99.90
59857;DHT22;45733;52.668;6.860;2023-07-02T01:17:09;16.20;99.90
59857;DHT22;45733;52.668;6.860;2023-07-02T01:19:52;16.30;99.90
59857;DHT22;45733;52.668;6.860;2023-07-02T01:22:21;16.30;99.90
59857;DHT22;45733;52.668;6.860;2023-07-02T01:24:48;16.30;99.90
59857;DHT22;45733;52.668;6.860;2023-07-02T01:27:15;16.30;99.90
59857;DHT22;45733;52.668;6.860;2023-07-02T01:29:41;16.30;99.90
59857;DHT22;45733;52.668;6.860;2023-07-02T01:32:07;16.20;99.90
59857;DHT22;45733;52.668;6.860;2023-07-02T01:34:34;16.20;99.90
59857;DHT22;45733;52.668;6.860;2023-07-02T01:37:00;16.20;99.90
59857;DHT22;45733;52.668;6.860;2023-07-02T01:39:26;16.10;99.90
59857;DHT22;45733;52.668;6.860;2023-07-02T01:41:53;16.00;99.90
59857;DHT22;45733;52.668;6.860;2023-07-02T01:44:20;16.00;99.90
59857;DHT22;45733;52.668;6.860;2023-07-02T01:46:47;15.90;99.90
59857;DHT22;45733;52.668;6.860;2023-07-02T01:49:23;15.80;99.90
59857;DHT22;45733;52.668;6.860;2023-07-02T01:51:49;15.80;99.90
59857;DHT22;45733;52.668;6.860;2023-07-02T01:54:15;15.70;99.90
59857;DHT22;45733;52.668;6.860;2023-07-02T01:56:41;15.70;99.90
59857;DHT22;45733;52.668;6.860;2023-07-02T01:59:07;15.70;99.90
59857;DHT22;45733;52.668;6.860;2023-07-02T02:01:32;15.70;99.90
59857;DHT22;45733;52.668;6.860;2023-07-02T02:03:58;15.70;99.90
59857;DHT22;45733;52.668;6.860;2023-07-02T02:06:24;15.70;99.90
59857;DHT22;45733;52.668;6.860;2023-07-02T02:08:50;15.70;99.90
59857;DHT22;45733;52.668;6.860;2023-07-02T02:11:15;15.60;99.90
59857;DHT22;45733;52.668;6.860;2023-07-02T02:13:41;15.50;99.90
59857;DHT22;45733;52.668;6.860;2023-07-02T02:16:07;15.40;99.90
59857;DHT22;45733;52.668;6.860;2023-07-02T02:18:33;15.40;99.90
59857;DHT22;45733;52.668;6.860;2023-07-02T02:20:58;15.40;99.90
59857;DHT22;45733;52.668;6.860;2023-07-02T02:23:24;15.20;99.90
59857;DHT22;45733;52.668;6.860;2023-07-02T02:25:50;15.20;99.90
59857;DHT22;45733;52.668;6.860;2023-07-02T02:28:15;15.10;99.90
59857;DHT22;45733;52.668;6.860;2023-07-02T02:30:41;15.00;99.90
59857;DHT22;45733;52.668;6.860;2023-07-02T02:33:06;14.90;99.90
59857;DHT22;45733;52.668;6.860;2023-07-02T02:35:32;14.90;99.90
59857;DHT22;45733;52.668;6.860;2023-07-02T02:38:00;14.90;99.90
59857;DHT22;45733;52.668;6.860;2023-07-02T02:40:26;14.80;99.90
59857;DHT22;45733;52.668;6.860;2023-07-02T02:42:52;14.80;99.90
59857;DHT22;45733;52.668;6.860;2023-07-02T02:45:17;14.70;99.90
59857;DHT22;45733;52.668;6.860;2023-07-02T02:47:43;14.70;99.90
59857;DHT22;45733;52.668;6.860;2023-07-02T02:50:12;14.70;99.90
59857;DHT22;45733;52.668;6.860;2023-07-02T02:52:38;14.60;99.90
59857;DHT22;45733;52.668;6.860;2023-07-02T02:55:06;14.60;99.90
59857;DHT22;45733;52.668;6.860;2023-07-02T02:57:32;14.50;99.90
59857;DHT22;45733;52.668;6.860;2023-07-02T02:59:58;14.50;99.90
59857;DHT22;45733;52.668;6.860;2023-07-02T03:02:24;14.50;99.90
59857;DHT22;45733;52.668;6.860;2023-07-02T03:04:49;14.50;99.90
59857;DHT22;45733;52.668;6.860;2023-07-02T03:07:17;14.40;99.90
59857;DHT22;45733;52.668;6.860;2023-07-02T03:09:43;14.40;99.90
59857;DHT22;45733;52.668;6.860;2023-07-02T03:12:09;14.40;99.90
59857;DHT22;45733;52.668;6.860;2023-07-02T03:14:35;14.40;99.90
59857;DHT22;45733;52.668;6.860;2023-07-02T03:17:00;14.40;99.90
59857;DHT22;45733;52.668;6.860;2023-07-02T03:19:26;14.40;99.90
59857;DHT22;45733;52.668;6.860;2023-07-02T03:21:52;14.40;99.90
59857;DHT22;45733;52.668;6.860;2023-07-02T03:24:18;14.30;99.90
59857;DHT22;45733;52.668;6.860;2023-07-02T03:26:43;14.30;99.90
59857;DHT22;45733;52.668;6.860;2023-07-02T03:29:10;14.30;99.90
59857;DHT22;45733;52.668;6.860;2023-07-02T03:31:35;14.30;99.90
59857;DHT22;45733;52.668;6.860;2023-07-02T03:34:07;14.20;99.90
59857;DHT22;45733;52.668;6.860;2023-07-02T03:36:34;14.10;99.90
59857;DHT22;45733;52.668;6.860;2023-07-02T03:39:00;14.00;99.90
59857;DHT22;45733;52.668;6.860;2023-07-02T03:41:26;14.00;99.90
59857;DHT22;45733;52.668;6.860;2023-07-02T03:43:51;14.00;99.90
59857;DHT22;45733;52.668;6.860;2023-07-02T03:46:17;14.00;99.90
59857;DHT22;45733;52.668;6.860;2023-07-02T03:48:43;14.00;99.90
59857;DHT22;45733;52.668;6.860;2023-07-02T03:51:08;14.00;99.90
59857;DHT22;45733;52.668;6.860;2023-07-02T03:53:34;14.00;99.90
59857;DHT22;45733;52.668;6.860;2023-07-02T03:56:00;14.00;99.90
59857;DHT22;45733;52.668;6.860;2023-07-02T03:58:25;13.90;99.90
59857;DHT22;45733;52.668;6.860;2023-07-02T04:00:51;14.00;99.90
59857;DHT22;45733;52.668;6.860;2023-07-02T04:03:17;14.00;99.90
59857;DHT22;45733;52.668;6.860;2023-07-02T04:05:43;14.00;99.90
59857;DHT22;45733;52.668;6.860;2023-07-02T04:08:09;14.10;99.90
59857;DHT22;45733;52.668;6.860;2023-07-02T04:10:35;14.10;99.90
59857;DHT22;45733;52.668;6.860;2023-07-02T04:13:01;14.20;99.90
59857;DHT22;45733;52.668;6.860;2023-07-02T04:15:27;14.20;99.90
59857;DHT22;45733;52.668;6.860;2023-07-02T04:17:52;14.30;99.90
59857;DHT22;45733;52.668;6.860;2023-07-02T04:20:19;14.30;99.90
59857;DHT22;45733;52.668;6.860;2023-07-02T04:22:45;14.30;99.90
59857;DHT22;45733;52.668;6.860;2023-07-02T04:25:12;14.40;99.90
59857;DHT22;45733;52.668;6.860;2023-07-02T04:27:44;14.50;99.90
59857;DHT22;45733;52.668;6.860;2023-07-02T04:30:10;14.50;99.90
59857;DHT22;45733;52.668;6.860;2023-07-02T04:32:37;14.60;99.90
59857;DHT22;45733;52.668;6.860;2023-07-02T04:35:05;14.70;99.90
59857;DHT22;45733;52.668;6.860;2023-07-02T04:37:31;14.70;99.90
59857;DHT22;45733;52.668;6.860;2023-07-02T04:39:57;14.80;99.90
59857;DHT22;45733;52.668;6.860;2023-07-02T04:42:23;14.80;99.90
59857;DHT22;45733;52.668;6.860;2023-07-02T04:44:53;14.90;99.90
59857;DHT22;45733;52.668;6.860;2023-07-02T04:47:20;15.80;99.90
59857;DHT22;45733;52.668;6.860;2023-07-02T04:49:45;16.20;99.90
59857;DHT22;45733;52.668;6.860;2023-07-02T04:52:11;17.70;99.90
59857;DHT22;45733;52.668;6.860;2023-07-02T04:54:37;18.50;99.90
59857;DHT22;45733;52.668;6.860;2023-07-02T04:57:03;19.40;99.90
59857;DHT22;45733;52.668;6.860;2023-07-02T04:59:29;19.70;99.90
59857;DHT22;45733;52.668;6.860;2023-07-02T05:01:54;20.30;99.90
59857;DHT22;45733;52.668;6.860;2023-07-02T05:04:20;20.70;99.90
59857;DHT22;45733;52.668;6.860;2023-07-02T05:06:46;20.90;99.90
59857;DHT22;45733;52.668;6.860;2023-07-02T05:09:11;21.80;99.90
59857;DHT22;45733;52.668;6.860;2023-07-02T05:11:37;22.20;99.90
59857;DHT22;45733;52.668;6.860;2023-07-02T05:14:03;21.80;99.90
59857;DHT22;45733;52.668;6.860;2023-07-02T05:16:28;22.40;99.90
59857;DHT22;45733;52.668;6.860;2023-07-02T05:18:54;22.40;99.90
59857;DHT22;45733;52.668;6.860;2023-07-02T05:21:20;22.50;99.90
59857;DHT22;45733;52.668;6.860;2023-07-02T05:23:47;22.80;99.90
59857;DHT22;45733;52.668;6.860;2023-07-02T05:26:12;22.60;99.90
59857;DHT22;45733;52.668;6.860;2023-07-02T05:28:38;23.30;99.90
59857;DHT22;45733;52.668;6.860;2023-07-02T05:31:04;23.30;99.90
59857;DHT22;45733;52.668;6.860;2023-07-02T05:33:29;23.20;99.90
59857;DHT22;45733;52.668;6.860;2023-07-02T05:35:57;22.70;99.90
59857;DHT22;45733;52.668;6.860;2023-07-02T05:38:23;23.50;99.90
59857;DHT22;45733;52.668;6.860;2023-07-02T05:40:50;23.00;99.90
59857;DHT22;45733;52.668;6.860;2023-07-02T05:43:15;23.20;99.90
59857;DHT22;45733;52.668;6.860;2023-07-02T05:45:41;22.80;99.90
59857;DHT22;45733;52.668;6.860;2023-07-02T05:48:07;23.10;99.90
59857;DHT22;45733;52.668;6.860;2023-07-02T05:50:32;22.60;99.90
59857;DHT22;45733;52.668;6.860;2023-07-02T05:52:59;20.60;99.90
59857;DHT22;45733;52.668;6.860;2023-07-02T05:55:24;20.30;99.90
59857;DHT22;45733;52.668;6.860;2023-07-02T05:57:50;20.20;99.90
59857;DHT22;45733;52.668;6.860;2023-07-02T06:00:16;19.60;99.90
59857;DHT22;45733;52.668;6.860;2023-07-02T06:02:41;19.80;99.90
59857;DHT22;45733;52.668;6.860;2023-07-02T06:05:07;19.80;99.90
59857;DHT22;45733;52.668;6.860;2023-07-02T06:07:33;19.70;99.90
59857;DHT22;45733;52.668;6.860;2023-07-02T06:09:59;19.70;99.90
59857;DHT22;45733;52.668;6.860;2023-07-02T06:12:24;19.60;99.90
59857;DHT22;45733;52.668;6.860;2023-07-02T06:14:50;19.40;99.90
59857;DHT22;45733;52.668;6.860;2023-07-02T06:17:16;19.50;99.90
59857;DHT22;45733;52.668;6.860;2023-07-02T06:19:42;19.30;99.90
59857;DHT22;45733;52.668;6.860;2023-07-02T06:22:10;19.40;99.90
59857;DHT22;45733;52.668;6.860;2023-07-02T06:24:36;19.30;99.90
59857;DHT22;45733;52.668;6.860;2023-07-02T06:27:01;19.50;99.90
59857;DHT22;45733;52.668;6.860;2023-07-02T06:29:28;19.50;99.90
59857;DHT22;45733;52.668;6.860;2023-07-02T06:31:57;19.30;99.90
59857;DHT22;45733;52.668;6.860;2023-07-02T06:34:26;19.40;99.90
59857;DHT22;45733;52.668;6.860;2023-07-02T06:36:51;19.80;99.90
59857;DHT22;45733;52.668;6.860;2023-07-02T06:39:17;20.20;99.90
59857;DHT22;45733;52.668;6.860;2023-07-02T06:41:46;20.00;99.90
59857;DHT22;45733;52.668;6.860;2023-07-02T06:44:11;20.00;99.90
59857;DHT22;45733;52.668;6.860;2023-07-02T06:46:37;19.80;99.90
59857;DHT22;45733;52.668;6.860;2023-07-02T06:49:03;20.10;99.90
59857;DHT22;45733;52.668;6.860;2023-07-02T06:51:29;19.80;99.90
59857;DHT22;45733;52.668;6.860;2023-07-02T06:53:54;20.00;99.90
59857;DHT22;45733;52.668;6.860;2023-07-02T06:56:20;20.00;99.90
59857;DHT22;45733;52.668;6.860;2023-07-02T06:58:46;20.20;99.90
59857;DHT22;45733;52.668;6.860;2023-07-02T07:01:12;20.10;99.90
59857;DHT22;45733;52.668;6.860;2023-07-02T07:03:37;20.00;99.90
59857;DHT22;45733;52.668;6.860;2023-07-02T07:06:03;20.20;99.90
59857;DHT22;45733;52.668;6.860;2023-07-02T07:08:37;20.20;99.90
59857;DHT22;45733;52.668;6.860;2023-07-02T07:11:04;20.10;99.90
59857;DHT22;45733;52.668;6.860;2023-07-02T07:13:30;20.20;99.90
59857;DHT22;45733;52.668;6.860;2023-07-02T07:15:55;19.80;99.90
59857;DHT22;45733;52.668;6.860;2023-07-02T07:18:21;19.40;99.90
59857;DHT22;45733;52.668;6.860;2023-07-02T07:20:47;19.00;99.90
59857;DHT22;45733;52.668;6.860;2023-07-02T07:23:13;19.00;99.90
59857;DHT22;45733;52.668;6.860;2023-07-02T07:25:39;18.70;99.90
59857;DHT22;45733;52.668;6.860;2023-07-02T07:28:05;18.80;99.90
59857;DHT22;45733;52.668;6.860;2023-07-02T07:30:30;19.10;99.90
59857;DHT22;45733;52.668;6.860;2023-07-02T07:32:56;19.60;99.90
59857;DHT22;45733;52.668;6.860;2023-07-02T07:35:22;19.50;99.90
59857;DHT22;45733;52.668;6.860;2023-07-02T07:37:48;19.80;99.90
59857;DHT22;45733;52.668;6.860;2023-07-02T07:40:14;19.80;99.90
59857;DHT22;45733;52.668;6.860;2023-07-02T07:42:41;19.70;99.90
59857;DHT22;45733;52.668;6.860;2023-07-02T07:45:08;20.10;99.90
59857;DHT22;45733;52.668;6.860;2023-07-02T07:47:34;20.10;99.90
59857;DHT22;45733;52.668;6.860;2023-07-02T07:49:59;20.20;99.90
59857;DHT22;45733;52.668;6.860;2023-07-02T07:52:25;20.20;99.90
59857;DHT22;45733;52.668;6.860;2023-07-02T07:54:51;19.60;99.90
59857;DHT22;45733;52.668;6.860;2023-07-02T07:57:17;19.20;99.90
59857;DHT22;45733;52.668;6.860;2023-07-02T07:59:42;19.00;99.90
59857;DHT22;45733;52.668;6.860;2023-07-02T08:02:08;18.80;99.90
59857;DHT22;45733;52.668;6.860;2023-07-02T08:04:34;18.80;99.90
59857;DHT22;45733;52.668;6.860;2023-07-02T08:07:00;18.80;99.90
59857;DHT22;45733;52.668;6.860;2023-07-02T08:09:25;18.60;99.90
59857;DHT22;45733;52.668;6.860;2023-07-02T08:11:51;18.50;99.90
59857;DHT22;45733;52.668;6.860;2023-07-02T08:14:17;18.30;99.90
59857;DHT22;45733;52.668;6.860;2023-07-02T08:16:46;18.10;99.90
59857;DHT22;45733;52.668;6.860;2023-07-02T08:19:11;17.90;99.90
59857;DHT22;45733;52.668;6.860;2023-07-02T08:21:37;17.80;99.90
59857;DHT22;45733;52.668;6.860;2023-07-02T08:24:03;18.00;99.90
59857;DHT22;45733;52.668;6.860;2023-07-02T08:26:29;19.00;99.90
59857;DHT22;45733;52.668;6.860;2023-07-02T08:28:59;19.70;99.90
59857;DHT22;45733;52.668;6.860;2023-07-02T08:31:24;20.20;99.90
59857;DHT22;45733;52.668;6.860;2023-07-02T08:33:50;20.50;99.90
59857;DHT22;45733;52.668;6.860;2023-07-02T08:36:16;20.50;99.90
59857;DHT22;45733;52.668;6.860;2023-07-02T08:38:41;20.10;99.90
59857;DHT22;45733;52.668;6.860;2023-07-02T08:41:08;19.50;99.90
59857;DHT22;45733;52.668;6.860;2023-07-02T08:43:35;19.80;99.90
59857;DHT22;45733;52.668;6.860;2023-07-02T08:46:01;20.50;99.90
59857;DHT22;45733;52.668;6.860;2023-07-02T08:48:28;20.80;99.90
59857;DHT22;45733;52.668;6.860;2023-07-02T08:50:58;21.30;99.90
59857;DHT22;45733;52.668;6.860;2023-07-02T08:53:23;21.70;99.90
59857;DHT22;45733;52.668;6.860;2023-07-02T08:55:55;21.00;99.90
59857;DHT22;45733;52.668;6.860;2023-07-02T08:58:21;20.80;99.90
59857;DHT22;45733;52.668;6.860;2023-07-02T09:01:06;20.70;99.90
59857;DHT22;45733;52.668;6.860;2023-07-02T09:03:33;21.30;99.90
59857;DHT22;45733;52.668;6.860;2023-07-02T09:05:59;21.40;99.90
59857;DHT22;45733;52.668;6.860;2023-07-02T09:08:28;21.10;99.90
59857;DHT22;45733;52.668;6.860;2023-07-02T09:10:54;20.60;99.90
59857;DHT22;45733;52.668;6.860;2023-07-02T09:16:25;20.10;99.90
59857;DHT22;45733;52.668;6.860;2023-07-02T09:19:01;20.20;99.90
59857;DHT22;45733;52.668;6.860;2023-07-02T09:21:46;20.60;99.90
59857;DHT22;45733;52.668;6.860;2023-07-02T09:24:18;20.60;99.90
59857;DHT22;45733;52.668;6.860;2023-07-02T09:26:49;20.20;99.90
59857;DHT22;45733;52.668;6.860;2023-07-02T09:29:22;19.80;99.90
59857;DHT22;45733;52.668;6.860;2023-07-02T09:31:57;19.80;99.90
59857;DHT22;45733;52.668;6.860;2023-07-02T09:34:33;20.20;99.90
59857;DHT22;45733;52.668;6.860;2023-07-02T09:37:00;19.90;99.90
59857;DHT22;45733;52.668;6.860;2023-07-02T09:39:31;19.60;99.90
59857;DHT22;45733;52.668;6.860;2023-07-02T09:41:58;19.30;99.90
59857;DHT22;45733;52.668;6.860;2023-07-02T09:44:31;19.30;99.90
59857;DHT22;45733;52.668;6.860;2023-07-02T09:47:05;19.20;99.90
59857;DHT22;45733;52.668;6.860;2023-07-02T09:49:36;19.20;99.90
59857;DHT22;45733;52.668;6.860;2023-07-02T09:52:09;20.40;99.90
59857;DHT22;45733;52.668;6.860;2023-07-02T09:54:36;20.30;99.90
59857;DHT22;45733;52.668;6.860;2023-07-02T09:57:02;20.20;99.90
59857;DHT22;45733;52.668;6.860;2023-07-02T09:59:28;20.20;99.90
59857;DHT22;45733;52.668;6.860;2023-07-02T10:01:55;20.00;99.90
59857;DHT22;45733;52.668;6.860;2023-07-02T10:04:21;19.90;99.90
59857;DHT22;45733;52.668;6.860;2023-07-02T10:09:18;20.20;99.90
59857;DHT22;45733;52.668;6.860;2023-07-02T10:11:44;21.10;99.90
59857;DHT22;45733;52.668;6.860;2023-07-02T10:14:11;20.80;99.90
59857;DHT22;45733;52.668;6.860;2023-07-02T10:16:55;20.80;99.90
59857;DHT22;45733;52.668;6.860;2023-07-02T10:19:21;20.70;99.90
59857;DHT22;45733;52.668;6.860;2023-07-02T10:22:01;20.80;99.90
59857;DHT22;45733;52.668;6.860;2023-07-02T10:24:27;20.90;99.90
59857;DHT22;45733;52.668;6.860;2023-07-02T10:26:58;20.90;99.90
59857;DHT22;45733;52.668;6.860;2023-07-02T10:29:27;20.40;99.90
59857;DHT22;45733;52.668;6.860;2023-07-02T10:31:55;19.90;99.90
59857;DHT22;45733;52.668;6.860;2023-07-02T10:34:35;19.60;99.90
59857;DHT22;45733;52.668;6.860;2023-07-02T10:37:01;19.30;99.90
59857;DHT22;45733;52.668;6.860;2023-07-02T10:39:31;19.10;99.90
59857;DHT22;45733;52.668;6.860;2023-07-02T10:42:07;19.00;99.90
59857;DHT22;45733;52.668;6.860;2023-07-02T10:44:45;18.90;99.90
59857;DHT22;45733;52.668;6.860;2023-07-02T10:47:14;18.70;99.90
59857;DHT22;45733;52.668;6.860;2023-07-02T10:49:40;18.90;99.90
59857;DHT22;45733;52.668;6.860;2023-07-02T10:52:09;19.20;99.90
59857;DHT22;45733;52.668;6.860;2023-07-02T10:57:08;19.00;99.90
59857;DHT22;45733;52.668;6.860;2023-07-02T10:59:34;19.00;99.90
59857;DHT22;45733;52.668;6.860;2023-07-02T11:02:00;19.10;99.90
59857;DHT22;45733;52.668;6.860;2023-07-02T11:04:30;19.30;99.90
59857;DHT22;45733;52.668;6.860;2023-07-02T11:06:55;19.70;99.90
59857;DHT22;45733;52.668;6.860;2023-07-02T11:09:21;20.90;99.90
59857;DHT22;45733;52.668;6.860;2023-07-02T11:11:59;21.50;99.90
59857;DHT22;45733;52.668;6.860;2023-07-02T11:14:34;21.10;99.90
59857;DHT22;45733;52.668;6.860;2023-07-02T11:17:03;21.00;99.90
59857;DHT22;45733;52.668;6.860;2023-07-02T11:19:31;21.80;99.90
59857;DHT22;45733;52.668;6.860;2023-07-02T11:21:58;22.60;99.90
59857;DHT22;45733;52.668;6.860;2023-07-02T11:24:34;23.00;99.90
59857;DHT22;45733;52.668;6.860;2023-07-02T11:27:02;23.00;99.90
59857;DHT22;45733;52.668;6.860;2023-07-02T11:29:32;23.00;99.90
59857;DHT22;45733;52.668;6.860;2023-07-02T11:32:09;23.20;99.90
59857;DHT22;45733;52.668;6.860;2023-07-02T11:34:35;23.50;99.90
59857;DHT22;45733;52.668;6.860;2023-07-02T11:37:01;23.20;99.90
59857;DHT22;45733;52.668;6.860;2023-07-02T11:39:27;23.20;99.90
59857;DHT22;45733;52.668;6.860;2023-07-02T11:41:53;23.50;98.50
59857;DHT22;45733;52.668;6.860;2023-07-02T11:44:19;23.10;98.70
59857;DHT22;45733;52.668;6.860;2023-07-02T11:46:45;22.50;98.50
59857;DHT22;45733;52.668;6.860;2023-07-02T11:49:12;23.20;99.70
59857;DHT22;45733;52.668;6.860;2023-07-02T11:51:39;23.30;99.20
59857;DHT22;45733;52.668;6.860;2023-07-02T11:54:05;22.40;98.70
59857;DHT22;45733;52.668;6.860;2023-07-02T11:56:31;21.50;99.30
59857;DHT22;45733;52.668;6.860;2023-07-02T11:58:57;21.30;99.90
59857;DHT22;45733;52.668;6.860;2023-07-02T12:01:23;21.90;99.90
59857;DHT22;45733;52.668;6.860;2023-07-02T12:03:49;21.90;99.90
59857;DHT22;45733;52.668;6.860;2023-07-02T12:06:15;21.90;99.90
59857;DHT22;45733;52.668;6.860;2023-07-02T12:08:40;21.80;99.90
59857;DHT22;45733;52.668;6.860;2023-07-02T12:11:07;21.30;98.90
59857;DHT22;45733;52.668;6.860;2023-07-02T12:13:32;20.90;99.00
59857;DHT22;45733;52.668;6.860;2023-07-02T12:15:58;20.60;99.90
59857;DHT22;45733;52.668;6.860;2023-07-02T12:18:23;21.00;99.90
59857;DHT22;45733;52.668;6.860;2023-07-02T12:20:49;22.00;99.90
59857;DHT22;45733;52.668;6.860;2023-07-02T12:23:15;22.40;99.90
59857;DHT22;45733;52.668;6.860;2023-07-02T12:25:41;22.90;99.90
59857;DHT22;45733;52.668;6.860;2023-07-02T12:28:06;22.90;98.30
59857;DHT22;45733;52.668;6.860;2023-07-02T12:30:32;22.00;98.10
59857;DHT22;45733;52.668;6.860;2023-07-02T12:32:58;21.40;98.20
59857;DHT22;45733;52.668;6.860;2023-07-02T12:35:23;21.20;98.40
59857;DHT22;45733;52.668;6.860;2023-07-02T12:37:51;21.30;98.50
59857;DHT22;45733;52.668;6.860;2023-07-02T12:40:18;21.20;97.40
59857;DHT22;45733;52.668;6.860;2023-07-02T12:42:45;22.20;98.50
59857;DHT22;45733;52.668;6.860;2023-07-02T12:45:11;22.10;96.90
59857;DHT22;45733;52.668;6.860;2023-07-02T12:47:38;22.60;97.80
59857;DHT22;45733;52.668;6.860;2023-07-02T12:50:05;22.90;96.60
59857;DHT22;45733;52.668;6.860;2023-07-02T12:52:31;23.30;97.20
59857;DHT22;45733;52.668;6.860;2023-07-02T12:54:57;23.70;97.10
59857;DHT22;45733;52.668;6.860;2023-07-02T12:57:23;23.30;96.50
59857;DHT22;45733;52.668;6.860;2023-07-02T12:59:48;23.10;97.10
59857;DHT22;45733;52.668;6.860;2023-07-02T13:02:14;22.40;96.40
59857;DHT22;45733;52.668;6.860;2023-07-02T13:04:40;23.30;96.50
59857;DHT22;45733;52.668;6.860;2023-07-02T13:07:07;22.60;95.60
59857;DHT22;45733;52.668;6.860;2023-07-02T13:09:32;22.40;95.80
59857;DHT22;45733;52.668;6.860;2023-07-02T13:11:58;21.90;95.60
59857;DHT22;45733;52.668;6.860;2023-07-02T13:14:24;22.80;94.80
59857;DHT22;45733;52.668;6.860;2023-07-02T13:16:49;22.40;94.70
59857;DHT22;45733;52.668;6.860;2023-07-02T13:19:15;22.70;94.60
59857;DHT22;45733;52.668;6.860;2023-07-02T13:21:41;22.70;94.70
59857;DHT22;45733;52.668;6.860;2023-07-02T13:24:07;22.20;95.10
59857;DHT22;45733;52.668;6.860;2023-07-02T13:26:32;22.10;93.40
59857;DHT22;45733;52.668;6.860;2023-07-02T13:28:58;21.90;93.10
59857;DHT22;45733;52.668;6.860;2023-07-02T13:31:24;21.40;94.20
59857;DHT22;45733;52.668;6.860;2023-07-02T13:33:50;22.30;95.30
59857;DHT22;45733;52.668;6.860;2023-07-02T13:36:16;22.10;95.30
59857;DHT22;45733;52.668;6.860;2023-07-02T13:38:42;22.20;94.50
59857;DHT22;45733;52.668;6.860;2023-07-02T13:41:07;22.20;94.20
59857;DHT22;45733;52.668;6.860;2023-07-02T13:43:33;22.20;94.60
59857;DHT22;45733;52.668;6.860;2023-07-02T13:45:59;22.50;95.00
59857;DHT22;45733;52.668;6.860;2023-07-02T13:48:25;22.70;94.70
59857;DHT22;45733;52.668;6.860;2023-07-02T13:50:50;22.70;95.40
59857;DHT22;45733;52.668;6.860;2023-07-02T13:53:16;22.80;95.20
59857;DHT22;45733;52.668;6.860;2023-07-02T13:55:42;23.10;95.30
59857;DHT22;45733;52.668;6.860;2023-07-02T13:58:07;22.90;94.70
59857;DHT22;45733;52.668;6.860;2023-07-02T14:00:33;22.60;94.90
59857;DHT22;45733;52.668;6.860;2023-07-02T14:02:59;23.20;95.30
59857;DHT22;45733;52.668;6.860;2023-07-02T14:05:24;22.40;94.50
59857;DHT22;45733;52.668;6.860;2023-07-02T14:07:50;22.00;95.40
59857;DHT22;45733;52.668;6.860;2023-07-02T14:10:16;21.60;95.90
59857;DHT22;45733;52.668;6.860;2023-07-02T14:12:42;21.40;95.20
59857;DHT22;45733;52.668;6.860;2023-07-02T14:15:09;21.00;95.00
59857;DHT22;45733;52.668;6.860;2023-07-02T14:17:35;20.90;94.70
59857;DHT22;45733;52.668;6.860;2023-07-02T14:20:01;21.20;94.50
59857;DHT22;45733;52.668;6.860;2023-07-02T14:22:27;20.80;94.60
59857;DHT22;45733;52.668;6.860;2023-07-02T14:24:53;21.90;95.70
59857;DHT22;45733;52.668;6.860;2023-07-02T14:27:19;22.30;94.20
59857;DHT22;45733;52.668;6.860;2023-07-02T14:29:44;21.10;93.80
59857;DHT22;45733;52.668;6.860;2023-07-02T14:32:13;21.80;94.80
59857;DHT22;45733;52.668;6.860;2023-07-02T14:34:39;21.30;93.70
59857;DHT22;45733;52.668;6.860;2023-07-02T14:37:05;21.40;94.80
59857;DHT22;45733;52.668;6.860;2023-07-02T14:39:31;22.20;95.00
59857;DHT22;45733;52.668;6.860;2023-07-02T14:41:56;22.80;94.10
59857;DHT22;45733;52.668;6.860;2023-07-02T14:44:22;22.90;93.70
59857;DHT22;45733;52.668;6.860;2023-07-02T14:46:48;22.50;94.50
59857;DHT22;45733;52.668;6.860;2023-07-02T14:49:14;22.20;94.40
59857;DHT22;45733;52.668;6.860;2023-07-02T14:51:40;22.10;94.00
59857;DHT22;45733;52.668;6.860;2023-07-02T14:54:06;21.90;95.00
59857;DHT22;45733;52.668;6.860;2023-07-02T14:56:33;21.80;95.50
59857;DHT22;45733;52.668;6.860;2023-07-02T14:58:59;22.00;95.00
59857;DHT22;45733;52.668;6.860;2023-07-02T15:01:24;21.30;94.20
59857;DHT22;45733;52.668;6.860;2023-07-02T15:03:51;21.80;94.50
59857;DHT22;45733;52.668;6.860;2023-07-02T15:06:18;22.50;95.00
59857;DHT22;45733;52.668;6.860;2023-07-02T15:08:44;21.90;93.10
59857;DHT22;45733;52.668;6.860;2023-07-02T15:11:11;21.60;94.20
59857;DHT22;45733;52.668;6.860;2023-07-02T15:13:38;21.20;94.90
59857;DHT22;45733;52.668;6.860;2023-07-02T15:16:05;21.30;94.90
59857;DHT22;45733;52.668;6.860;2023-07-02T15:18:30;21.60;95.30
59857;DHT22;45733;52.668;6.860;2023-07-02T15:20:57;21.70;95.10
59857;DHT22;45733;52.668;6.860;2023-07-02T15:23:27;21.70;95.00
59857;DHT22;45733;52.668;6.860;2023-07-02T15:25:54;21.50;94.80
59857;DHT22;45733;52.668;6.860;2023-07-02T15:28:21;21.60;95.80
59857;DHT22;45733;52.668;6.860;2023-07-02T15:30:52;21.30;95.20
59857;DHT22;45733;52.668;6.860;2023-07-02T15:33:18;20.90;95.00
59857;DHT22;45733;52.668;6.860;2023-07-02T15:35:43;21.00;95.70